Los Angeles, CA (90001)

8:01 AM PDT on April 25, 2015 (GMT -0700)
Natural History Museum | | Change Station
CLOSE
Current Station
Personal Weather Station
Location: Los Angeles, CA
Elevation: 207 ft
Nearby Weather Stations
Active Advisory: Wind Advisory Active Notice: Record Report

Elev 207 ft 34.02 °N, 118.29 °W | Updated 16 seconds ago

Overcast
Overcast
57.7 °F
Feels Like 57.7 °F
N
1.2
Wind Variable Wind from WNW
Gusts 1.2 mph

Today
High -- | Low -- °F
--% Chance of Precip.
Yesterday
High -- | Low -- °F
Precip. -- in
6:10 AM 7:31 PM
Waxing Crescent, 46% visible
Pressure 29.99 in
Visibility 10.0 miles
Clouds Scattered Clouds 1400 ft
Mostly Cloudy 2500 ft
Overcast 3900 ft
Dew Point 52 °F
Humidity 81%
Rainfall 0.00 in
Snow Depth Not available.
UV 0 out of 12
Pollen 6.10 out of 12
Air Quality Not available.
Flu Activity Sporadic
SPECI KCQT 251457Z AUTO 00000KT 10SM SCT014 BKN025 OVC039 15/11 A2999 RMK AO2 T01500106

More Conditions Fewer Conditions

Pressure 29.99 in
Visibility 10.0 miles
Clouds Scattered Clouds 1400 ft
Mostly Cloudy 2500 ft
Overcast 3900 ft
Dew Point 52 °F
Humidity 81%
Rainfall 0.00 in
Snow Depth Not available.
UV 0 out of 12
Pollen 6.10 out of 12
Air Quality Not available.
Flu Activity Sporadic
SPECI KCQT 251457Z AUTO 00000KT 10SM SCT014 BKN025 OVC039 15/11 A2999 RMK AO2 T01500106

More Conditions Fewer Conditions

10-Day Weather Forecast

Almanac

Astronomy

Apr. 25, 2015 Rise Set
Actual Time
Civil Twilight
Nautical Twilight
Astronomical Twilight
Moon
Length of Visible Light
Length of Day
Tomorrow will be .
, % of the Moon is Illuminated

Today's Extremes

State Highs State Lows

Community

WunderPhotos

Upload Photos

1,816,703 photos uploaded!

WunderBlogs® & News

Nearby

Air Quality

  Air Quality AQ Index Pollutant
Not available.

Snow Depth

Station Depth Elevation

Earthquake Activity

City Distance Mag. Time & Date
Minimum magnitude displayed is 2.5.

Coastal Water Temperatures

Place Temperature

Stations

Nearby Weather Stations

Station Location Temp. Windchill Dew Point Humidity Wind Precip. Elev Updated Type
                   
Wind Advisory
Statement as of 2:49 AM PDT on April 25, 2015

... Wind Advisory in effect from 3 PM this afternoon to 9 PM PDT
this evening...

The National Weather Service in Los Angeles/Oxnard has issued a
Wind Advisory... which is in effect from 3 PM this afternoon to
9 PM PDT this evening.

* Winds and timing... west winds 15 to 25 mph with gusts to 35 mph
will develop by mid afternoon and continue through most of this
evening. Strongest gusts will be near the coast. Winds will
begin to diminish late this evening.

* Impacts... gusty winds will make driving difficult... especially
for drivers of high profile vehicles... near the coast.

Precautionary/preparedness actions...

When driving... use extra caution. Be prepared for sudden gusty
cross winds.